createdAt,value
2022-10-22T00:00:08.725Z,100444.07
2022-10-22T00:02:55.427Z,100434.15
2022-10-22T00:05:22.081Z,100427.36
2022-10-22T00:07:48.862Z,100417.69
2022-10-22T00:10:17.175Z,100411.51
2022-10-22T00:12:44.377Z,100407.91
2022-10-22T00:15:11.950Z,100403.26
2022-10-22T00:17:39.018Z,100401.45
2022-10-22T00:20:06.726Z,100397.92
2022-10-22T00:22:33.473Z,100394.52
2022-10-22T00:25:00.116Z,100394.08
2022-10-22T00:27:26.859Z,100383.80
2022-10-22T00:29:53.449Z,100375.14
2022-10-22T00:32:20.073Z,100364.71
2022-10-22T00:34:46.686Z,100365.83
2022-10-22T00:37:13.359Z,100357.73
2022-10-22T00:39:40.109Z,100353.65
2022-10-22T00:42:06.931Z,100351.66
2022-10-22T00:45:01.749Z,100348.52
2022-10-22T00:47:57.200Z,100341.48
2022-10-22T00:50:26.662Z,100331.08
2022-10-22T00:52:54.664Z,100328.23
2022-10-22T00:55:23.284Z,100333.63
2022-10-22T00:57:50.177Z,100340.52
2022-10-22T01:00:17.441Z,100342.06
2022-10-22T01:02:44.753Z,100342.77
2022-10-22T01:05:11.512Z,100343.21
2022-10-22T01:07:44.650Z,100332.99
2022-10-22T01:10:32.239Z,100330.71
2022-10-22T01:13:27.061Z,100333.61
2022-10-22T01:15:56.081Z,100327.31
2022-10-22T01:18:26.188Z,100317.67
2022-10-22T01:21:00.046Z,100312.44
2022-10-22T01:23:29.187Z,100312.12
2022-10-22T01:26:03.929Z,100309.34
2022-10-22T01:28:56.721Z,100304.98
2022-10-22T01:31:29.353Z,100305.77
2022-10-22T01:33:59.053Z,100298.27
2022-10-22T01:36:28.975Z,100295.69
2022-10-22T01:38:57.387Z,100283.45
2022-10-22T01:41:24.477Z,100280.35
2022-10-22T01:43:51.050Z,100280.65
2022-10-22T01:46:23.791Z,100275.52
2022-10-22T01:49:27.003Z,100271.13
2022-10-22T01:52:15.829Z,100272.73
2022-10-22T01:54:57.659Z,100267.64
2022-10-22T01:57:48.333Z,100269.52
2022-10-22T02:00:18.274Z,100281.32
2022-10-22T02:03:04.490Z,100273.60
2022-10-22T02:05:49.119Z,100270.13
2022-10-22T02:08:24.597Z,100270.06
2022-10-22T02:10:52.791Z,100267.13
2022-10-22T02:13:30.950Z,100266.27
2022-10-22T02:15:59.764Z,100271.04
2022-10-22T02:18:30.726Z,100270.15
2022-10-22T02:20:59.228Z,100274.20
2022-10-22T02:23:26.055Z,100282.33
2022-10-22T02:26:01.513Z,100284.13
2022-10-22T02:28:45.902Z,100291.81
2022-10-22T02:31:22.831Z,100297.38
2022-10-22T02:33:55.322Z,100300.45
2022-10-22T02:36:23.652Z,100295.98
2022-10-22T02:38:51.854Z,100294.89
2022-10-22T02:41:19.815Z,100289.02
2022-10-22T02:43:53.958Z,100280.59
2022-10-22T02:46:20.788Z,100279.52
2022-10-22T02:48:47.393Z,100272.23
2022-10-22T02:51:14.443Z,100269.43
2022-10-22T02:53:41.234Z,100267.48
2022-10-22T02:56:08.046Z,100266.57
2022-10-22T02:58:34.688Z,100269.15
2022-10-22T03:01:01.445Z,100269.13
2022-10-22T03:03:28.305Z,100257.81
2022-10-22T03:05:54.983Z,100253.25
2022-10-22T03:08:21.594Z,100248.31
2022-10-22T03:10:48.209Z,100243.29
2022-10-22T03:13:14.863Z,100245.08
2022-10-22T03:15:41.454Z,100251.14
2022-10-22T03:18:08.544Z,100249.95
2022-10-22T03:20:35.348Z,100248.82
2022-10-22T03:23:02.948Z,100246.00
2022-10-22T03:25:33.939Z,100243.59
2022-10-22T03:28:08.008Z,100233.80
2022-10-22T03:30:35.170Z,100230.35
2022-10-22T03:33:02.012Z,100230.29
2022-10-22T03:35:30.027Z,100227.72
2022-10-22T03:38:00.555Z,100234.14
2022-10-22T03:40:27.227Z,100238.87
2022-10-22T03:42:53.930Z,100227.30
2022-10-22T03:45:20.750Z,100219.08
2022-10-22T03:47:47.391Z,100214.80
2022-10-22T03:50:14.054Z,100217.91
2022-10-22T03:52:40.624Z,100218.23
2022-10-22T03:55:08.708Z,100224.56
2022-10-22T03:57:35.471Z,100227.25
2022-10-22T04:00:05.561Z,100237.33
2022-10-22T04:02:32.302Z,100235.96
2022-10-22T04:04:59.199Z,100233.63
2022-10-22T04:07:26.185Z,100232.34
2022-10-22T04:09:52.808Z,100220.30
2022-10-22T04:12:19.465Z,100215.67
2022-10-22T04:14:46.901Z,100216.04
2022-10-22T04:17:13.494Z,100219.17
2022-10-22T04:19:40.169Z,100213.73
2022-10-22T04:22:06.779Z,100214.45
2022-10-22T04:24:33.430Z,100213.34
2022-10-22T04:27:00.083Z,100211.87
2022-10-22T04:29:27.103Z,100209.89
2022-10-22T04:31:53.767Z,100208.56
2022-10-22T04:34:20.427Z,100203.60
2022-10-22T04:36:47.389Z,100200.48
2022-10-22T04:39:14.383Z,100198.08
2022-10-22T04:41:41.052Z,100194.58
2022-10-22T04:44:11.116Z,100194.84
2022-10-22T04:46:43.237Z,100196.86
2022-10-22T04:49:09.948Z,100204.09
2022-10-22T04:51:36.708Z,100209.24
2022-10-22T04:54:03.622Z,100211.59
2022-10-22T04:56:32.212Z,100206.76
2022-10-22T04:59:01.486Z,100198.36
2022-10-22T05:01:39.921Z,100197.72
2022-10-22T05:04:15.093Z,100199.92
2022-10-22T05:06:42.573Z,100196.55
2022-10-22T05:09:15.738Z,100200.11
2022-10-22T05:11:47.725Z,100194.98
2022-10-22T05:14:17.058Z,100190.48
2022-10-22T05:19:23.447Z,100186.20
2022-10-22T05:21:51.738Z,100177.05
2022-10-22T05:24:18.468Z,100175.19
2022-10-22T05:26:45.150Z,100172.85
2022-10-22T05:29:11.745Z,100177.41
2022-10-22T05:31:38.736Z,100182.11
2022-10-22T05:34:05.427Z,100180.41
2022-10-22T05:36:32.059Z,100181.24
2022-10-22T05:38:59.120Z,100176.92
2022-10-22T05:41:27.436Z,100176.43
2022-10-22T05:43:58.473Z,100175.09
2022-10-22T05:46:27.579Z,100174.96
2022-10-22T05:48:56.795Z,100175.73
2022-10-22T05:51:24.348Z,100182.13
2022-10-22T05:53:53.903Z,100184.70
2022-10-22T05:56:21.943Z,100184.60
2022-10-22T05:58:49.447Z,100183.52
2022-10-22T06:01:19.307Z,100186.09
2022-10-22T06:03:47.087Z,100191.16
2022-10-22T06:06:52.627Z,100192.76
2022-10-22T06:09:28.802Z,100195.33
2022-10-22T06:11:56.310Z,100195.40
2022-10-22T06:14:24.025Z,100198.01
2022-10-22T06:16:51.515Z,100198.39
2022-10-22T06:19:21.134Z,100194.25
2022-10-22T06:21:48.902Z,100185.23
2022-10-22T06:24:17.107Z,100180.96
2022-10-22T06:26:44.398Z,100185.85
2022-10-22T06:29:11.213Z,100182.00
2022-10-22T06:31:38.491Z,100174.77
2022-10-22T06:34:09.986Z,100174.05
2022-10-22T06:36:37.780Z,100171.64
2022-10-22T06:39:05.266Z,100172.29
2022-10-22T06:41:32.177Z,100165.34
2022-10-22T06:43:59.452Z,100166.27
2022-10-22T06:46:26.917Z,100164.91
2022-10-22T06:49:05.279Z,100166.70
2022-10-22T06:51:32.261Z,100166.87
2022-10-22T06:53:58.905Z,100161.88
2022-10-22T06:56:28.874Z,100172.42
2022-10-22T06:58:57.776Z,100172.80
2022-10-22T07:01:27.520Z,100175.88
2022-10-22T07:03:54.769Z,100165.80
2022-10-22T07:06:23.010Z,100160.35
2022-10-22T07:08:50.009Z,100160.14
2022-10-22T07:11:19.588Z,100157.48
2022-10-22T07:13:47.375Z,100151.30
2022-10-22T07:16:14.426Z,100149.83
2022-10-22T07:18:41.818Z,100155.44
2022-10-22T07:21:09.821Z,100157.61
2022-10-22T07:23:37.182Z,100160.10
2022-10-22T07:26:07.013Z,100161.99
2022-10-22T07:28:37.373Z,100160.55
2022-10-22T07:31:04.724Z,100158.30
2022-10-22T07:33:31.427Z,100159.82
2022-10-22T07:36:02.401Z,100156.96
2022-10-22T07:38:30.900Z,100156.41
2022-10-22T07:40:57.801Z,100155.85
2022-10-22T07:43:24.734Z,100163.95
2022-10-22T07:45:51.357Z,100161.55
2022-10-22T07:48:18.308Z,100163.15
2022-10-22T07:53:11.470Z,100164.17
2022-10-22T07:55:38.054Z,100159.77
2022-10-22T07:58:04.666Z,100158.25
2022-10-22T08:00:31.276Z,100154.09
2022-10-22T08:02:57.862Z,100156.02
2022-10-22T08:05:24.471Z,100155.24
2022-10-22T08:07:51.184Z,100157.53
2022-10-22T08:10:17.934Z,100154.94
2022-10-22T08:12:44.816Z,100153.89
2022-10-22T08:15:11.609Z,100149.09
2022-10-22T08:17:38.671Z,100145.39
2022-10-22T08:20:06.324Z,100146.59
2022-10-22T08:22:33.032Z,100149.14
2022-10-22T08:24:59.868Z,100151.22
2022-10-22T08:27:26.708Z,100150.77
2022-10-22T08:29:53.438Z,100148.95
2022-10-22T08:32:20.289Z,100149.98
2022-10-22T08:34:46.974Z,100148.80
2022-10-22T08:37:13.808Z,100148.42
2022-10-22T08:39:41.066Z,100151.19
2022-10-22T08:42:34.684Z,100156.73
2022-10-22T08:45:23.127Z,100162.33
2022-10-22T08:48:10.137Z,100162.97
2022-10-22T08:50:41.656Z,100166.73
2022-10-22T08:53:18.164Z,100168.77
2022-10-22T08:55:45.438Z,100168.70
2022-10-22T08:58:19.768Z,100169.67
2022-10-22T09:00:59.507Z,100170.52
2022-10-22T09:03:32.074Z,100169.91
2022-10-22T09:06:10.587Z,100160.71
2022-10-22T09:08:39.199Z,100163.52
2022-10-22T09:11:11.728Z,100160.45
2022-10-22T09:13:41.448Z,100166.76
2022-10-22T09:16:25.535Z,100169.79
2022-10-22T09:19:19.538Z,100167.86
2022-10-22T09:22:18.223Z,100167.27
2022-10-22T09:24:47.496Z,100163.46
2022-10-22T09:27:20.775Z,100162.09
2022-10-22T09:29:47.928Z,100161.55
2022-10-22T09:32:15.911Z,100159.83
2022-10-22T09:34:47.492Z,100160.20
2022-10-22T09:37:17.744Z,100152.55
2022-10-22T09:39:47.222Z,100152.98
2022-10-22T09:42:17.653Z,100149.16
2022-10-22T09:44:51.961Z,100145.13
2022-10-22T09:48:01.191Z,100142.17
2022-10-22T09:50:37.841Z,100125.92
2022-10-22T09:53:35.346Z,100131.30
2022-10-22T09:56:08.384Z,100126.09
2022-10-22T09:58:48.714Z,100123.29
2022-10-22T10:01:24.823Z,100118.80
2022-10-22T10:03:51.489Z,100118.63
2022-10-22T10:06:21.318Z,100107.73
2022-10-22T10:08:49.093Z,100106.34
2022-10-22T10:11:33.360Z,100108.18
2022-10-22T10:14:25.311Z,100109.27
2022-10-22T10:17:11.318Z,100107.74
2022-10-22T10:20:09.474Z,100108.09
2022-10-22T10:22:44.638Z,100100.17
2022-10-22T10:25:22.081Z,100095.31
2022-10-22T10:28:31.934Z,100090.21
2022-10-22T10:30:58.473Z,100083.66
2022-10-22T10:33:46.337Z,100073.33
2022-10-22T10:36:43.073Z,100067.41
2022-10-22T10:39:15.745Z,100067.73
2022-10-22T10:42:01.473Z,100066.71
2022-10-22T10:44:44.041Z,100065.23
2022-10-22T10:47:38.630Z,100072.60
2022-10-22T10:50:21.555Z,100053.64
2022-10-22T10:53:00.111Z,100070.31
2022-10-22T10:55:35.631Z,100074.95
2022-10-22T10:58:14.081Z,100065.67
2022-10-22T11:00:57.108Z,100064.71
2022-10-22T11:03:55.372Z,100066.28
2022-10-22T11:06:25.388Z,100055.39
2022-10-22T11:08:58.864Z,100052.13
2022-10-22T11:11:25.614Z,100052.17
2022-10-22T11:14:12.330Z,100056.49
2022-10-22T11:16:57.897Z,100059.37
2022-10-22T11:19:52.471Z,100058.21
2022-10-22T11:23:00.326Z,100048.08
2022-10-22T11:25:35.425Z,100041.87
2022-10-22T11:28:12.172Z,100046.64
2022-10-22T11:30:45.525Z,100045.79
2022-10-22T11:33:18.293Z,100040.04
2022-10-22T11:35:47.216Z,100045.02
2022-10-22T11:38:17.944Z,100052.84
2022-10-22T11:41:00.325Z,100062.30
2022-10-22T11:44:07.914Z,100048.94
2022-10-22T11:46:46.773Z,100042.22
2022-10-22T11:49:13.516Z,100041.19
2022-10-22T11:51:42.778Z,100032.77
2022-10-22T11:54:36.870Z,100034.84
2022-10-22T11:57:15.762Z,100038.23
2022-10-22T11:59:55.682Z,100035.55
2022-10-22T12:02:44.394Z,100025.99
2022-10-22T12:05:32.743Z,100034.35
2022-10-22T12:08:01.720Z,100034.10
2022-10-22T12:11:03.835Z,100030.17
2022-10-22T12:14:09.507Z,100026.30
2022-10-22T12:20:03.363Z,100021.30
2022-10-22T12:22:33.497Z,100024.15
2022-10-22T12:25:02.561Z,100017.22
2022-10-22T12:27:40.808Z,100015.41
2022-10-22T12:30:27.428Z,100013.84
2022-10-22T12:33:02.392Z,100017.17
2022-10-22T12:35:41.141Z,100012.70
2022-10-22T12:38:19.679Z,100006.33
2022-10-22T12:40:48.838Z,100003.46
2022-10-22T12:43:19.275Z,100002.80
2022-10-22T12:45:49.213Z,99997.51
2022-10-22T12:48:35.724Z,99987.00
2022-10-22T12:51:07.571Z,99983.27
2022-10-22T12:53:42.714Z,99976.61
2022-10-22T12:56:15.822Z,99982.33
2022-10-22T12:58:44.833Z,99979.30
2022-10-22T13:01:13.745Z,99982.35
2022-10-22T13:04:02.951Z,99976.52
2022-10-22T13:06:29.522Z,99969.60
2022-10-22T13:09:03.098Z,99968.79
2022-10-22T13:11:40.549Z,99970.06
2022-10-22T13:14:25.505Z,99972.01
2022-10-22T13:17:12.227Z,99967.55
2022-10-22T13:20:10.300Z,99969.44
2022-10-22T13:22:39.962Z,99972.02
2022-10-22T13:25:16.619Z,99970.57
2022-10-22T13:27:44.520Z,99968.36
2022-10-22T13:30:22.638Z,99966.20
2022-10-22T13:32:52.462Z,99962.64
2022-10-22T13:35:23.220Z,99958.87
2022-10-22T13:37:50.177Z,99954.76
2022-10-22T13:40:16.975Z,99957.39
2022-10-22T13:42:44.147Z,99953.11
2022-10-22T13:45:12.876Z,99959.17
2022-10-22T13:47:40.231Z,99955.61
2022-10-22T13:50:16.490Z,99956.22
2022-10-22T13:52:47.141Z,99963.73
2022-10-22T13:55:34.107Z,99962.66
2022-10-22T13:58:09.989Z,99960.75
2022-10-22T14:00:39.037Z,99966.80
2022-10-22T14:03:09.421Z,99973.11
2022-10-22T14:05:36.227Z,99970.45
2022-10-22T14:08:03.302Z,99962.20
2022-10-22T14:10:29.936Z,99959.30
2022-10-22T14:12:57.936Z,99958.55
2022-10-22T14:15:28.239Z,99954.80
2022-10-22T14:17:58.658Z,99953.40
2022-10-22T14:20:29.225Z,99949.61
2022-10-22T14:22:56.255Z,99945.54
2022-10-22T14:25:25.276Z,99940.64
2022-10-22T14:27:52.286Z,99934.95
2022-10-22T14:30:22.227Z,99934.33
2022-10-22T14:32:49.420Z,99927.36
2022-10-22T14:35:21.768Z,99928.33
2022-10-22T14:37:48.810Z,99929.88
2022-10-22T14:40:18.861Z,99930.06
2022-10-22T14:42:47.276Z,99936.02
2022-10-22T14:45:14.055Z,99940.85
2022-10-22T14:47:40.721Z,99940.60
2022-10-22T14:50:07.730Z,99942.98
2022-10-22T14:52:34.981Z,99936.61
2022-10-22T14:55:01.601Z,99928.85
2022-10-22T14:57:28.356Z,99927.95
2022-10-22T14:59:55.196Z,99922.83
2022-10-22T15:02:22.330Z,99917.16
2022-10-22T15:04:49.051Z,99913.80
2022-10-22T15:07:18.928Z,99920.47
2022-10-22T15:09:46.154Z,99916.52
2022-10-22T15:12:13.027Z,99913.35
2022-10-22T15:14:39.768Z,99911.81
2022-10-22T15:17:06.399Z,99908.98
2022-10-22T15:19:33.092Z,99912.58
2022-10-22T15:22:00.176Z,99913.80
2022-10-22T15:24:26.954Z,99911.56
2022-10-22T15:26:54.246Z,99914.73
2022-10-22T15:29:22.490Z,99913.55
2022-10-22T15:31:54.687Z,99916.17
2022-10-22T15:34:28.357Z,99921.16
2022-10-22T15:36:56.918Z,99922.36
2022-10-22T15:39:24.449Z,99925.07
2022-10-22T15:41:52.148Z,99922.98
2022-10-22T15:44:23.892Z,99926.30
2022-10-22T15:46:51.539Z,99927.67
2022-10-22T15:49:18.907Z,99926.83
2022-10-22T15:51:45.557Z,99932.06
2022-10-22T15:54:21.377Z,99936.69
2022-10-22T15:56:48.291Z,99933.48
2022-10-22T15:59:16.420Z,99930.39
2022-10-22T16:01:43.693Z,99932.89
2022-10-22T16:04:10.787Z,99936.79
2022-10-22T16:06:39.307Z,99930.75
2022-10-22T16:09:12.672Z,99930.81
2022-10-22T16:11:39.888Z,99930.23
2022-10-22T16:14:07.610Z,99927.39
2022-10-22T16:16:35.944Z,99932.86
2022-10-22T16:19:02.764Z,99936.84
2022-10-22T16:21:29.665Z,99935.76
2022-10-22T16:23:56.467Z,99940.48
2022-10-22T16:26:23.079Z,99939.44
2022-10-22T16:28:49.773Z,99940.05
2022-10-22T16:31:19.235Z,99936.52
2022-10-22T16:33:47.883Z,99923.60
2022-10-22T16:36:19.138Z,99935.23
2022-10-22T16:38:47.407Z,99936.83
2022-10-22T16:41:19.659Z,99936.69
2022-10-22T16:43:48.879Z,99940.11
2022-10-22T16:46:17.701Z,99942.01
2022-10-22T16:48:45.840Z,99937.46
2022-10-22T16:51:14.702Z,99940.09
2022-10-22T16:53:41.679Z,99939.22
2022-10-22T16:56:10.138Z,99931.45
2022-10-22T16:58:37.896Z,99931.29
2022-10-22T17:01:08.803Z,99933.55
2022-10-22T17:03:36.581Z,99932.34
2022-10-22T17:06:04.541Z,99938.85
2022-10-22T17:08:33.778Z,99934.31
2022-10-22T17:11:08.603Z,99933.85
2022-10-22T17:13:36.313Z,99929.60
2022-10-22T17:16:08.483Z,99923.52
2022-10-22T17:18:37.124Z,99921.39
2022-10-22T17:21:05.428Z,99922.04
2022-10-22T17:23:32.219Z,99918.04
2022-10-22T17:26:01.419Z,99915.94
2022-10-22T17:28:29.471Z,99919.33
2022-10-22T17:31:08.761Z,99924.90
2022-10-22T17:33:36.761Z,99930.19
2022-10-22T17:36:12.173Z,99922.23
2022-10-22T17:38:40.998Z,99919.87
2022-10-22T17:41:12.545Z,99917.88
2022-10-22T17:43:41.305Z,99921.07
2022-10-22T17:46:10.939Z,99914.52
2022-10-22T17:48:37.709Z,99910.81
2022-10-22T17:51:09.709Z,99913.24
2022-10-22T17:53:40.959Z,99908.30
2022-10-22T17:56:09.700Z,99904.67
2022-10-22T17:58:36.822Z,99902.48
2022-10-22T18:01:04.446Z,99902.91
2022-10-22T18:03:32.916Z,99900.89
2022-10-22T18:06:09.501Z,99903.80
2022-10-22T18:08:36.331Z,99904.40
2022-10-22T18:11:07.729Z,99910.08
2022-10-22T18:13:34.400Z,99908.61
2022-10-22T18:16:01.555Z,99906.05
2022-10-22T18:18:28.504Z,99903.60
2022-10-22T18:20:55.248Z,99902.23
2022-10-22T18:23:22.008Z,99904.45
2022-10-22T18:25:48.913Z,99907.60
2022-10-22T18:28:16.372Z,99901.83
2022-10-22T18:30:43.975Z,99901.10
2022-10-22T18:33:11.802Z,99896.41
2022-10-22T18:35:40.657Z,99887.11
2022-10-22T18:38:08.041Z,99885.00
2022-10-22T18:40:35.512Z,99876.58
2022-10-22T18:43:02.844Z,99872.41
2022-10-22T18:45:29.827Z,99864.25
2022-10-22T18:47:58.247Z,99868.20
2022-10-22T18:50:25.018Z,99868.23
2022-10-22T18:52:51.769Z,99872.55
2022-10-22T18:55:18.483Z,99874.65
2022-10-22T18:57:45.864Z,99873.27
2022-10-22T19:00:13.426Z,99866.41
2022-10-22T19:02:40.421Z,99866.86
2022-10-22T19:05:07.659Z,99863.63
2022-10-22T19:07:35.943Z,99861.64
2022-10-22T19:10:03.432Z,99868.04
2022-10-22T19:12:30.005Z,99867.69
2022-10-22T19:14:56.637Z,99875.10
2022-10-22T19:17:24.749Z,99878.20
2022-10-22T19:19:51.890Z,99877.95
2022-10-22T19:22:18.615Z,99879.16
2022-10-22T19:24:46.494Z,99884.33
2022-10-22T19:27:13.347Z,99877.25
2022-10-22T19:29:40.330Z,99881.59
2022-10-22T19:34:34.913Z,99893.27
2022-10-22T19:37:01.538Z,99894.46
2022-10-22T19:39:28.295Z,99893.14
2022-10-22T19:41:54.988Z,99891.80
2022-10-22T19:44:21.833Z,99892.70
2022-10-22T19:46:48.547Z,99891.41
2022-10-22T19:49:17.711Z,99888.73
2022-10-22T19:51:47.145Z,99882.82
2022-10-22T19:54:17.915Z,99881.03
2022-10-22T19:56:46.087Z,99884.00
2022-10-22T19:59:14.858Z,99882.73
2022-10-22T20:01:41.637Z,99879.14
2022-10-22T20:04:15.021Z,99871.05
2022-10-22T20:06:42.295Z,99867.20
2022-10-22T20:09:10.515Z,99879.06
2022-10-22T20:11:37.220Z,99879.71
2022-10-22T20:14:03.882Z,99886.40
2022-10-22T20:16:30.722Z,99890.33
2022-10-22T20:19:03.313Z,99894.10
2022-10-22T20:21:31.035Z,99893.27
2022-10-22T20:23:58.765Z,99898.85
2022-10-22T20:26:31.117Z,99898.86
2022-10-22T20:28:58.700Z,99893.48
2022-10-22T20:31:27.889Z,99887.96
2022-10-22T20:33:57.354Z,99886.42
2022-10-22T20:36:25.262Z,99883.63
2022-10-22T20:38:52.044Z,99886.07
2022-10-22T20:41:21.501Z,99880.83
2022-10-22T20:43:50.201Z,99877.39
2022-10-22T20:46:18.379Z,99876.95
2022-10-22T20:48:45.891Z,99874.59
2022-10-22T20:51:12.833Z,99878.50
2022-10-22T20:53:39.425Z,99880.10
2022-10-22T20:56:06.397Z,99880.48
2022-10-22T20:58:33.124Z,99873.39
2022-10-22T21:01:08.906Z,99876.95
2022-10-22T21:03:37.172Z,99884.95
2022-10-22T21:06:04.841Z,99881.11
2022-10-22T21:08:31.634Z,99881.08
2022-10-22T21:10:58.257Z,99878.48
2022-10-22T21:13:24.937Z,99876.08
2022-10-22T21:15:51.693Z,99862.11
2022-10-22T21:18:18.414Z,99858.96
2022-10-22T21:20:45.017Z,99851.13
2022-10-22T21:23:11.831Z,99851.77
2022-10-22T21:25:41.995Z,99838.88
2022-10-22T21:28:10.779Z,99839.66
2022-10-22T21:30:44.230Z,99839.56
2022-10-22T21:33:10.882Z,99848.36
2022-10-22T21:35:37.748Z,99840.23
2022-10-22T21:38:07.124Z,99836.13
2022-10-22T21:40:36.766Z,99830.98
2022-10-22T21:43:03.369Z,99830.87
2022-10-22T21:45:29.959Z,99832.39
2022-10-22T21:47:56.603Z,99835.97
2022-10-22T21:50:23.316Z,99830.25
2022-10-22T21:52:49.922Z,99828.04
2022-10-22T21:55:16.658Z,99826.67
2022-10-22T21:57:43.475Z,99822.70
2022-10-22T22:00:11.283Z,99823.30
2022-10-22T22:02:45.782Z,99822.58
2022-10-22T22:05:12.396Z,99829.39
2022-10-22T22:07:39.576Z,99822.57
2022-10-22T22:10:06.809Z,99834.48
2022-10-22T22:12:33.389Z,99831.95
2022-10-22T22:15:00.421Z,99828.78
2022-10-22T22:17:27.086Z,99825.52
2022-10-22T22:19:53.897Z,99825.31
2022-10-22T22:22:20.568Z,99824.55
2022-10-22T22:24:47.440Z,99820.30
2022-10-22T22:27:16.790Z,99811.66
2022-10-22T22:29:44.316Z,99803.00
2022-10-22T22:32:13.694Z,99799.89
2022-10-22T22:34:40.349Z,99803.56
2022-10-22T22:37:07.479Z,99789.73
2022-10-22T22:39:34.091Z,99791.16
2022-10-22T22:42:01.154Z,99784.00
2022-10-22T22:44:27.725Z,99778.95
2022-10-22T22:46:54.321Z,99777.30
2022-10-22T22:49:20.920Z,99773.91
2022-10-22T22:51:48.600Z,99770.39
2022-10-22T22:54:15.291Z,99766.14
2022-10-22T22:56:41.928Z,99764.02
2022-10-22T22:59:10.405Z,99779.55
2022-10-22T23:01:40.422Z,99778.27
2022-10-22T23:04:11.768Z,99777.56
2022-10-22T23:06:38.739Z,99777.36
2022-10-22T23:09:07.652Z,99775.08
2022-10-22T23:11:35.134Z,99774.46
2022-10-22T23:14:04.779Z,99773.11
2022-10-22T23:16:34.157Z,99772.48
2022-10-22T23:19:01.297Z,99768.83
2022-10-22T23:21:30.541Z,99770.00
2022-10-22T23:24:00.678Z,99770.40
2022-10-22T23:26:30.152Z,99776.45
2022-10-22T23:29:26.447Z,99775.19
2022-10-22T23:31:54.151Z,99777.19
2022-10-22T23:34:23.796Z,99778.64
2022-10-22T23:36:51.342Z,99775.63
2022-10-22T23:39:24.009Z,99776.52
2022-10-22T23:41:52.592Z,99777.80
2022-10-22T23:44:20.308Z,99773.77
2022-10-22T23:46:47.125Z,99770.77
2022-10-22T23:49:14.359Z,99764.87
2022-10-22T23:51:41.020Z,99764.63
2022-10-22T23:54:11.507Z,99760.33
2022-10-22T23:56:38.394Z,99755.33
2022-10-22T23:59:05.115Z,99757.12
